Pagrindinis puslapis
METAR-TAF:

METAR-TAF

Oro uostai :

Rivas, Nikaragva

platuma: 11-25N, ilguma: 085-50W, Aukštis: 53 m

Dabartinis oras

Ataskaita buvo paskelbta 1 valandą ir 15 minutes, ne 15:00 UTC
Ramus vėjas
Temperatūra 28°C
Drėgmė 79%
Slėgis 1013 hPa
Matomumas 10 km arba daugiau
Mažai debesys ne aukštis 1500 ft, Liūtiniai kamuoliniai debesys.
Su prošvaistėmis ne aukštis 1600 ft

METAR: MNRS 171500Z 00000KT 9999 FEW015CB BKN016 28/24 Q1013 CB E SE S

Laikas: 10:15 (16:15 UTC)


TAF: trūkstamas

Orai ataskaitas ir orų prognozės (METAR, TAF).

turimą stotys yra geltonos ir raudonos taškus žemėlapyje.

Perkelti pele per norėdami pamatyti stoties vardą.

Tada spustelėkite, norėdami matyti oro stebėjimo ir prognozės.

Norėdami pakeisti žemėlapį: spustelėkite ant žalios mygtukų su juodo kryžiaus žemyn,; žalią mygtuką su brūkšneliu, jei norite nutolinti; arba žalių rodyklių gretimoms žemėlapius.


METAR-TAF: